sensor_id;sensor_type;location;lat;lon;timestamp;temperature;humidity
5086;DHT22;4715;51.660;7.082;2023-12-29T00:02:07;11.30;99.90
5086;DHT22;4715;51.660;7.082;2023-12-29T00:04:29;11.30;99.90
5086;DHT22;4715;51.660;7.082;2023-12-29T00:06:51;11.30;99.90
5086;DHT22;4715;51.660;7.082;2023-12-29T00:09:16;11.20;99.90
5086;DHT22;4715;51.660;7.082;2023-12-29T00:11:40;11.20;99.90
5086;DHT22;4715;51.660;7.082;2023-12-29T00:14:02;11.20;99.90
5086;DHT22;4715;51.660;7.082;2023-12-29T00:16:24;11.20;99.90
5086;DHT22;4715;51.660;7.082;2023-12-29T00:18:46;11.20;99.90
5086;DHT22;4715;51.660;7.082;2023-12-29T00:21:07;11.20;99.90
5086;DHT22;4715;51.660;7.082;2023-12-29T00:23:29;11.20;99.90
5086;DHT22;4715;51.660;7.082;2023-12-29T00:25:52;11.20;99.90
5086;DHT22;4715;51.660;7.082;2023-12-29T00:28:14;11.20;99.90
5086;DHT22;4715;51.660;7.082;2023-12-29T00:30:38;11.20;99.90
5086;DHT22;4715;51.660;7.082;2023-12-29T00:33:00;11.20;99.90
5086;DHT22;4715;51.660;7.082;2023-12-29T00:35:22;11.20;99.90
5086;DHT22;4715;51.660;7.082;2023-12-29T00:37:44;11.20;99.90
5086;DHT22;4715;51.660;7.082;2023-12-29T00:40:08;11.20;99.90
5086;DHT22;4715;51.660;7.082;2023-12-29T00:42:32;11.30;99.90
5086;DHT22;4715;51.660;7.082;2023-12-29T00:44:54;11.20;99.90
5086;DHT22;4715;51.660;7.082;2023-12-29T00:47:16;11.30;99.90
5086;DHT22;4715;51.660;7.082;2023-12-29T00:49:40;11.20;99.90
5086;DHT22;4715;51.660;7.082;2023-12-29T00:52:02;11.30;99.90
5086;DHT22;4715;51.660;7.082;2023-12-29T00:54:27;11.30;99.90
5086;DHT22;4715;51.660;7.082;2023-12-29T00:56:49;11.30;99.90
5086;DHT22;4715;51.660;7.082;2023-12-29T00:59:12;11.30;99.90
5086;DHT22;4715;51.660;7.082;2023-12-29T01:01:34;11.30;99.90
5086;DHT22;4715;51.660;7.082;2023-12-29T01:03:59;11.30;99.90
5086;DHT22;4715;51.660;7.082;2023-12-29T01:06:23;11.30;99.90
5086;DHT22;4715;51.660;7.082;2023-12-29T01:08:45;11.30;99.90
5086;DHT22;4715;51.660;7.082;2023-12-29T01:11:09;11.30;99.90
5086;DHT22;4715;51.660;7.082;2023-12-29T01:13:34;11.30;99.90
5086;DHT22;4715;51.660;7.082;2023-12-29T01:15:57;11.30;99.90
5086;DHT22;4715;51.660;7.082;2023-12-29T01:18:19;11.30;99.90
5086;DHT22;4715;51.660;7.082;2023-12-29T01:20:41;11.30;99.90
5086;DHT22;4715;51.660;7.082;2023-12-29T01:23:05;11.30;99.90
5086;DHT22;4715;51.660;7.082;2023-12-29T01:25:30;11.30;99.90
5086;DHT22;4715;51.660;7.082;2023-12-29T01:27:52;11.20;99.90
5086;DHT22;4715;51.660;7.082;2023-12-29T01:30:14;11.10;99.90
5086;DHT22;4715;51.660;7.082;2023-12-29T01:32:37;10.90;99.90
5086;DHT22;4715;51.660;7.082;2023-12-29T01:34:59;10.80;99.90
5086;DHT22;4715;51.660;7.082;2023-12-29T01:37:22;10.80;99.90
5086;DHT22;4715;51.660;7.082;2023-12-29T01:39:44;10.90;99.90
5086;DHT22;4715;51.660;7.082;2023-12-29T01:42:07;10.90;99.90
5086;DHT22;4715;51.660;7.082;2023-12-29T01:44:29;10.90;99.90
5086;DHT22;4715;51.660;7.082;2023-12-29T01:46:53;11.00;99.90
5086;DHT22;4715;51.660;7.082;2023-12-29T01:49:17;11.00;99.90
5086;DHT22;4715;51.660;7.082;2023-12-29T01:51:38;11.00;99.90
5086;DHT22;4715;51.660;7.082;2023-12-29T01:54:02;11.00;99.90
5086;DHT22;4715;51.660;7.082;2023-12-29T01:56:24;11.00;99.90
5086;DHT22;4715;51.660;7.082;2023-12-29T01:58:48;11.00;99.90
5086;DHT22;4715;51.660;7.082;2023-12-29T02:01:10;11.00;99.90
5086;DHT22;4715;51.660;7.082;2023-12-29T02:03:34;10.80;99.90
5086;DHT22;4715;51.660;7.082;2023-12-29T02:05:57;10.70;99.90
5086;DHT22;4715;51.660;7.082;2023-12-29T02:08:20;10.50;99.90
5086;DHT22;4715;51.660;7.082;2023-12-29T02:10:44;10.40;99.90
5086;DHT22;4715;51.660;7.082;2023-12-29T02:13:06;10.20;99.90
5086;DHT22;4715;51.660;7.082;2023-12-29T02:15:29;10.00;99.90
5086;DHT22;4715;51.660;7.082;2023-12-29T02:17:59;9.90;99.90
5086;DHT22;4715;51.660;7.082;2023-12-29T02:20:23;9.70;99.90
5086;DHT22;4715;51.660;7.082;2023-12-29T02:22:51;9.70;99.90
5086;DHT22;4715;51.660;7.082;2023-12-29T02:25:14;9.60;99.90
5086;DHT22;4715;51.660;7.082;2023-12-29T02:27:43;9.60;99.90
5086;DHT22;4715;51.660;7.082;2023-12-29T02:30:14;9.50;99.90
5086;DHT22;4715;51.660;7.082;2023-12-29T02:32:39;9.50;99.90
5086;DHT22;4715;51.660;7.082;2023-12-29T02:35:03;9.50;99.90
5086;DHT22;4715;51.660;7.082;2023-12-29T02:37:29;9.40;99.90
5086;DHT22;4715;51.660;7.082;2023-12-29T02:39:51;9.40;99.90
5086;DHT22;4715;51.660;7.082;2023-12-29T02:42:15;9.40;99.90
5086;DHT22;4715;51.660;7.082;2023-12-29T02:44:37;9.40;99.90
5086;DHT22;4715;51.660;7.082;2023-12-29T02:47:00;9.30;99.90
5086;DHT22;4715;51.660;7.082;2023-12-29T02:49:24;9.30;99.90
5086;DHT22;4715;51.660;7.082;2023-12-29T02:51:48;9.30;99.90
5086;DHT22;4715;51.660;7.082;2023-12-29T02:54:11;9.30;99.90
5086;DHT22;4715;51.660;7.082;2023-12-29T02:56:33;9.30;99.90
5086;DHT22;4715;51.660;7.082;2023-12-29T02:58:57;9.30;99.90
5086;DHT22;4715;51.660;7.082;2023-12-29T03:01:19;9.30;99.90
5086;DHT22;4715;51.660;7.082;2023-12-29T03:03:41;9.30;99.90
5086;DHT22;4715;51.660;7.082;2023-12-29T03:06:05;9.40;99.90
5086;DHT22;4715;51.660;7.082;2023-12-29T03:08:28;9.50;99.90
5086;DHT22;4715;51.660;7.082;2023-12-29T03:10:51;9.60;99.90
5086;DHT22;4715;51.660;7.082;2023-12-29T03:13:13;9.60;99.90
5086;DHT22;4715;51.660;7.082;2023-12-29T03:15:36;9.70;99.90
5086;DHT22;4715;51.660;7.082;2023-12-29T03:17:58;9.70;99.90
5086;DHT22;4715;51.660;7.082;2023-12-29T03:20:20;9.70;99.90
5086;DHT22;4715;51.660;7.082;2023-12-29T03:22:42;9.70;99.90
5086;DHT22;4715;51.660;7.082;2023-12-29T03:25:05;9.80;99.90
5086;DHT22;4715;51.660;7.082;2023-12-29T03:27:28;9.80;99.90
5086;DHT22;4715;51.660;7.082;2023-12-29T03:29:50;9.80;99.90
5086;DHT22;4715;51.660;7.082;2023-12-29T03:32:13;9.80;99.90
5086;DHT22;4715;51.660;7.082;2023-12-29T03:34:37;9.90;99.90
5086;DHT22;4715;51.660;7.082;2023-12-29T03:36:59;9.90;99.90
5086;DHT22;4715;51.660;7.082;2023-12-29T03:39:24;9.90;99.90
5086;DHT22;4715;51.660;7.082;2023-12-29T03:41:46;10.00;99.90
5086;DHT22;4715;51.660;7.082;2023-12-29T03:44:08;10.10;99.90
5086;DHT22;4715;51.660;7.082;2023-12-29T03:46:30;10.10;99.90
5086;DHT22;4715;51.660;7.082;2023-12-29T03:48:54;10.10;99.90
5086;DHT22;4715;51.660;7.082;2023-12-29T03:51:16;10.10;99.90
5086;DHT22;4715;51.660;7.082;2023-12-29T03:53:40;10.10;99.90
5086;DHT22;4715;51.660;7.082;2023-12-29T03:56:04;10.10;99.90
5086;DHT22;4715;51.660;7.082;2023-12-29T03:58:26;10.00;99.90
5086;DHT22;4715;51.660;7.082;2023-12-29T04:00:48;10.00;99.90
5086;DHT22;4715;51.660;7.082;2023-12-29T04:03:10;10.10;99.90
5086;DHT22;4715;51.660;7.082;2023-12-29T04:05:33;10.10;99.90
5086;DHT22;4715;51.660;7.082;2023-12-29T04:07:55;10.10;99.90
5086;DHT22;4715;51.660;7.082;2023-12-29T04:10:18;10.10;99.90
5086;DHT22;4715;51.660;7.082;2023-12-29T04:12:41;10.20;99.90
5086;DHT22;4715;51.660;7.082;2023-12-29T04:15:03;10.20;99.90
5086;DHT22;4715;51.660;7.082;2023-12-29T04:17:25;10.20;99.90
5086;DHT22;4715;51.660;7.082;2023-12-29T04:19:47;10.20;99.90
5086;DHT22;4715;51.660;7.082;2023-12-29T04:22:11;10.20;99.90
5086;DHT22;4715;51.660;7.082;2023-12-29T04:24:33;10.20;99.90
5086;DHT22;4715;51.660;7.082;2023-12-29T04:26:54;10.30;99.90
5086;DHT22;4715;51.660;7.082;2023-12-29T04:29:17;10.20;99.90
5086;DHT22;4715;51.660;7.082;2023-12-29T04:31:39;10.20;99.90
5086;DHT22;4715;51.660;7.082;2023-12-29T04:34:01;10.20;99.90
5086;DHT22;4715;51.660;7.082;2023-12-29T04:36:23;10.20;99.90
5086;DHT22;4715;51.660;7.082;2023-12-29T04:38:48;10.20;99.90
5086;DHT22;4715;51.660;7.082;2023-12-29T04:41:12;10.20;99.90
5086;DHT22;4715;51.660;7.082;2023-12-29T04:43:36;10.30;99.90
5086;DHT22;4715;51.660;7.082;2023-12-29T04:45:58;10.30;99.90
5086;DHT22;4715;51.660;7.082;2023-12-29T04:48:22;10.30;99.90
5086;DHT22;4715;51.660;7.082;2023-12-29T04:50:43;10.30;99.90
5086;DHT22;4715;51.660;7.082;2023-12-29T04:53:05;10.30;99.90
5086;DHT22;4715;51.660;7.082;2023-12-29T04:55:28;10.40;99.90
5086;DHT22;4715;51.660;7.082;2023-12-29T04:57:50;10.50;99.90
5086;DHT22;4715;51.660;7.082;2023-12-29T05:00:13;10.50;99.90
5086;DHT22;4715;51.660;7.082;2023-12-29T05:02:35;10.50;99.90
5086;DHT22;4715;51.660;7.082;2023-12-29T05:04:57;10.50;99.90
5086;DHT22;4715;51.660;7.082;2023-12-29T05:07:19;10.60;99.90
5086;DHT22;4715;51.660;7.082;2023-12-29T05:09:40;10.60;99.90
5086;DHT22;4715;51.660;7.082;2023-12-29T05:12:04;10.60;99.90
5086;DHT22;4715;51.660;7.082;2023-12-29T05:14:27;10.60;99.90
5086;DHT22;4715;51.660;7.082;2023-12-29T05:16:49;10.60;99.90
5086;DHT22;4715;51.660;7.082;2023-12-29T05:19:11;10.70;99.90
5086;DHT22;4715;51.660;7.082;2023-12-29T05:21:33;10.70;99.90
5086;DHT22;4715;51.660;7.082;2023-12-29T05:23:55;10.70;99.90
5086;DHT22;4715;51.660;7.082;2023-12-29T05:26:17;10.70;99.90
5086;DHT22;4715;51.660;7.082;2023-12-29T05:28:40;10.70;99.90
5086;DHT22;4715;51.660;7.082;2023-12-29T05:31:02;10.70;99.90
5086;DHT22;4715;51.660;7.082;2023-12-29T05:33:24;10.70;99.90
5086;DHT22;4715;51.660;7.082;2023-12-29T05:35:47;10.70;99.90
5086;DHT22;4715;51.660;7.082;2023-12-29T05:38:08;10.70;99.90
5086;DHT22;4715;51.660;7.082;2023-12-29T05:40:30;10.70;99.90
5086;DHT22;4715;51.660;7.082;2023-12-29T05:42:54;10.70;99.90
5086;DHT22;4715;51.660;7.082;2023-12-29T05:45:17;10.70;99.90
5086;DHT22;4715;51.660;7.082;2023-12-29T05:47:38;10.70;99.90
5086;DHT22;4715;51.660;7.082;2023-12-29T05:50:00;10.80;99.90
5086;DHT22;4715;51.660;7.082;2023-12-29T05:52:22;10.80;99.90
5086;DHT22;4715;51.660;7.082;2023-12-29T05:54:45;10.70;99.90
5086;DHT22;4715;51.660;7.082;2023-12-29T05:57:08;10.70;99.90
5086;DHT22;4715;51.660;7.082;2023-12-29T05:59:31;10.80;99.90
5086;DHT22;4715;51.660;7.082;2023-12-29T06:01:54;10.70;99.90
5086;DHT22;4715;51.660;7.082;2023-12-29T06:04:17;10.70;99.90
5086;DHT22;4715;51.660;7.082;2023-12-29T06:06:41;10.70;99.90
5086;DHT22;4715;51.660;7.082;2023-12-29T06:09:03;10.70;99.90
5086;DHT22;4715;51.660;7.082;2023-12-29T06:11:25;10.70;99.90
5086;DHT22;4715;51.660;7.082;2023-12-29T06:13:47;10.70;99.90
5086;DHT22;4715;51.660;7.082;2023-12-29T06:16:09;10.70;99.90
5086;DHT22;4715;51.660;7.082;2023-12-29T06:18:33;10.70;99.90
5086;DHT22;4715;51.660;7.082;2023-12-29T06:20:55;10.70;99.90
5086;DHT22;4715;51.660;7.082;2023-12-29T06:23:17;10.70;99.90
5086;DHT22;4715;51.660;7.082;2023-12-29T06:25:40;10.70;99.90
5086;DHT22;4715;51.660;7.082;2023-12-29T06:28:02;10.70;99.90
5086;DHT22;4715;51.660;7.082;2023-12-29T06:30:27;10.70;99.90
5086;DHT22;4715;51.660;7.082;2023-12-29T06:32:49;10.70;99.90
5086;DHT22;4715;51.660;7.082;2023-12-29T06:35:13;10.60;99.90
5086;DHT22;4715;51.660;7.082;2023-12-29T06:37:36;10.60;99.90
5086;DHT22;4715;51.660;7.082;2023-12-29T06:39:58;10.60;99.90
5086;DHT22;4715;51.660;7.082;2023-12-29T06:42:20;10.60;99.90
5086;DHT22;4715;51.660;7.082;2023-12-29T06:44:42;10.60;99.90
5086;DHT22;4715;51.660;7.082;2023-12-29T06:47:04;10.60;99.90
5086;DHT22;4715;51.660;7.082;2023-12-29T06:49:27;10.60;99.90
5086;DHT22;4715;51.660;7.082;2023-12-29T06:51:51;10.60;99.90
5086;DHT22;4715;51.660;7.082;2023-12-29T06:54:15;10.60;99.90
5086;DHT22;4715;51.660;7.082;2023-12-29T06:56:37;10.60;99.90
5086;DHT22;4715;51.660;7.082;2023-12-29T06:58:59;10.60;99.90
5086;DHT22;4715;51.660;7.082;2023-12-29T07:01:21;10.70;99.90
5086;DHT22;4715;51.660;7.082;2023-12-29T07:03:43;10.60;99.90
5086;DHT22;4715;51.660;7.082;2023-12-29T07:06:06;10.60;99.90
5086;DHT22;4715;51.660;7.082;2023-12-29T07:08:31;10.70;99.90
5086;DHT22;4715;51.660;7.082;2023-12-29T07:10:56;10.60;99.90
5086;DHT22;4715;51.660;7.082;2023-12-29T07:13:17;10.70;99.90
5086;DHT22;4715;51.660;7.082;2023-12-29T07:15:39;10.70;99.90
5086;DHT22;4715;51.660;7.082;2023-12-29T07:18:01;10.60;99.90
5086;DHT22;4715;51.660;7.082;2023-12-29T07:20:23;10.60;99.90
5086;DHT22;4715;51.660;7.082;2023-12-29T07:22:49;10.60;99.90
5086;DHT22;4715;51.660;7.082;2023-12-29T07:25:12;10.60;99.90
5086;DHT22;4715;51.660;7.082;2023-12-29T07:27:34;10.50;99.90
5086;DHT22;4715;51.660;7.082;2023-12-29T07:29:59;10.40;99.90
5086;DHT22;4715;51.660;7.082;2023-12-29T07:32:21;10.30;99.90
5086;DHT22;4715;51.660;7.082;2023-12-29T07:34:43;10.20;99.90
5086;DHT22;4715;51.660;7.082;2023-12-29T07:37:05;10.20;99.90
5086;DHT22;4715;51.660;7.082;2023-12-29T07:39:30;10.20;99.90
5086;DHT22;4715;51.660;7.082;2023-12-29T07:41:53;10.10;99.90
5086;DHT22;4715;51.660;7.082;2023-12-29T07:44:15;10.10;99.90
5086;DHT22;4715;51.660;7.082;2023-12-29T07:46:37;10.20;99.90
5086;DHT22;4715;51.660;7.082;2023-12-29T07:49:00;10.20;99.90
5086;DHT22;4715;51.660;7.082;2023-12-29T07:51:21;10.20;99.90
5086;DHT22;4715;51.660;7.082;2023-12-29T07:53:43;10.30;99.90
5086;DHT22;4715;51.660;7.082;2023-12-29T07:56:06;10.30;99.90
5086;DHT22;4715;51.660;7.082;2023-12-29T07:58:29;10.30;99.90
5086;DHT22;4715;51.660;7.082;2023-12-29T08:00:51;10.30;99.90
5086;DHT22;4715;51.660;7.082;2023-12-29T08:03:13;10.40;99.90
5086;DHT22;4715;51.660;7.082;2023-12-29T08:05:36;10.40;99.90
5086;DHT22;4715;51.660;7.082;2023-12-29T08:07:59;10.40;99.90
5086;DHT22;4715;51.660;7.082;2023-12-29T08:10:21;10.40;99.90
5086;DHT22;4715;51.660;7.082;2023-12-29T08:12:42;10.40;99.90
5086;DHT22;4715;51.660;7.082;2023-12-29T08:15:07;10.40;99.90
5086;DHT22;4715;51.660;7.082;2023-12-29T08:17:29;10.40;99.90
5086;DHT22;4715;51.660;7.082;2023-12-29T08:19:51;10.40;99.90
5086;DHT22;4715;51.660;7.082;2023-12-29T08:22:13;10.40;99.90
5086;DHT22;4715;51.660;7.082;2023-12-29T08:24:35;10.40;99.90
5086;DHT22;4715;51.660;7.082;2023-12-29T08:26:57;10.40;99.90
5086;DHT22;4715;51.660;7.082;2023-12-29T08:29:19;10.40;99.90
5086;DHT22;4715;51.660;7.082;2023-12-29T08:31:43;10.40;99.90
5086;DHT22;4715;51.660;7.082;2023-12-29T08:34:04;10.40;99.90
5086;DHT22;4715;51.660;7.082;2023-12-29T08:36:28;10.40;99.90
5086;DHT22;4715;51.660;7.082;2023-12-29T08:38:50;10.40;99.90
5086;DHT22;4715;51.660;7.082;2023-12-29T08:41:14;10.30;99.90
5086;DHT22;4715;51.660;7.082;2023-12-29T08:43:36;10.20;99.90
5086;DHT22;4715;51.660;7.082;2023-12-29T08:45:58;10.20;99.90
5086;DHT22;4715;51.660;7.082;2023-12-29T08:48:22;10.20;99.90
5086;DHT22;4715;51.660;7.082;2023-12-29T08:50:44;10.20;99.90
5086;DHT22;4715;51.660;7.082;2023-12-29T08:53:07;10.20;99.90
5086;DHT22;4715;51.660;7.082;2023-12-29T08:55:29;10.30;99.90
5086;DHT22;4715;51.660;7.082;2023-12-29T08:57:51;10.30;99.90
5086;DHT22;4715;51.660;7.082;2023-12-29T09:00:14;10.40;99.90
5086;DHT22;4715;51.660;7.082;2023-12-29T09:02:38;10.40;99.90
5086;DHT22;4715;51.660;7.082;2023-12-29T09:05:01;10.40;99.90
5086;DHT22;4715;51.660;7.082;2023-12-29T09:07:24;10.40;99.90
5086;DHT22;4715;51.660;7.082;2023-12-29T09:09:47;10.40;99.90
5086;DHT22;4715;51.660;7.082;2023-12-29T09:12:08;10.40;99.90
5086;DHT22;4715;51.660;7.082;2023-12-29T09:14:33;10.40;99.90
5086;DHT22;4715;51.660;7.082;2023-12-29T09:16:55;10.50;99.90
5086;DHT22;4715;51.660;7.082;2023-12-29T09:19:16;10.50;99.90
5086;DHT22;4715;51.660;7.082;2023-12-29T09:21:40;10.50;99.90
5086;DHT22;4715;51.660;7.082;2023-12-29T09:24:02;10.50;99.90
5086;DHT22;4715;51.660;7.082;2023-12-29T09:26:25;10.50;99.90
5086;DHT22;4715;51.660;7.082;2023-12-29T09:28:47;10.50;99.90
5086;DHT22;4715;51.660;7.082;2023-12-29T09:31:11;10.50;99.90
5086;DHT22;4715;51.660;7.082;2023-12-29T09:33:33;10.50;99.90
5086;DHT22;4715;51.660;7.082;2023-12-29T09:35:56;10.50;99.90
5086;DHT22;4715;51.660;7.082;2023-12-29T09:38:21;10.50;99.90
5086;DHT22;4715;51.660;7.082;2023-12-29T09:40:43;10.50;99.90
5086;DHT22;4715;51.660;7.082;2023-12-29T09:43:11;10.60;99.90
5086;DHT22;4715;51.660;7.082;2023-12-29T09:45:37;10.60;99.90
5086;DHT22;4715;51.660;7.082;2023-12-29T09:48:01;10.60;99.90
5086;DHT22;4715;51.660;7.082;2023-12-29T09:50:24;10.60;99.90
5086;DHT22;4715;51.660;7.082;2023-12-29T09:52:48;10.60;99.90
5086;DHT22;4715;51.660;7.082;2023-12-29T09:55:14;10.60;99.90
5086;DHT22;4715;51.660;7.082;2023-12-29T09:57:37;10.60;99.90
5086;DHT22;4715;51.660;7.082;2023-12-29T09:59:59;10.60;99.90
5086;DHT22;4715;51.660;7.082;2023-12-29T10:02:23;10.70;99.90
5086;DHT22;4715;51.660;7.082;2023-12-29T10:04:48;10.70;99.90
5086;DHT22;4715;51.660;7.082;2023-12-29T10:07:13;10.70;99.90
5086;DHT22;4715;51.660;7.082;2023-12-29T10:09:39;10.70;99.90
5086;DHT22;4715;51.660;7.082;2023-12-29T10:12:10;10.80;99.90
5086;DHT22;4715;51.660;7.082;2023-12-29T10:14:37;10.80;99.90
5086;DHT22;4715;51.660;7.082;2023-12-29T10:17:08;10.80;99.90
5086;DHT22;4715;51.660;7.082;2023-12-29T10:19:39;10.80;99.90
5086;DHT22;4715;51.660;7.082;2023-12-29T10:22:08;10.80;99.90
5086;DHT22;4715;51.660;7.082;2023-12-29T10:24:33;10.70;99.90
5086;DHT22;4715;51.660;7.082;2023-12-29T10:26:56;10.80;99.90
5086;DHT22;4715;51.660;7.082;2023-12-29T10:29:19;10.80;99.90
5086;DHT22;4715;51.660;7.082;2023-12-29T10:31:42;10.80;99.90
5086;DHT22;4715;51.660;7.082;2023-12-29T10:34:20;10.80;99.90
5086;DHT22;4715;51.660;7.082;2023-12-29T10:36:49;10.90;99.90
5086;DHT22;4715;51.660;7.082;2023-12-29T10:39:11;10.80;99.90
5086;DHT22;4715;51.660;7.082;2023-12-29T10:41:33;10.90;99.90
5086;DHT22;4715;51.660;7.082;2023-12-29T10:44:06;10.90;99.90
5086;DHT22;4715;51.660;7.082;2023-12-29T10:46:31;10.90;99.90
5086;DHT22;4715;51.660;7.082;2023-12-29T10:48:52;10.80;99.90
5086;DHT22;4715;51.660;7.082;2023-12-29T10:51:14;10.80;99.90
5086;DHT22;4715;51.660;7.082;2023-12-29T10:53:41;10.80;99.90
5086;DHT22;4715;51.660;7.082;2023-12-29T10:56:04;10.80;99.90
5086;DHT22;4715;51.660;7.082;2023-12-29T10:58:32;10.80;99.90
5086;DHT22;4715;51.660;7.082;2023-12-29T11:00:58;10.80;99.90
5086;DHT22;4715;51.660;7.082;2023-12-29T11:03:22;10.80;99.90
5086;DHT22;4715;51.660;7.082;2023-12-29T11:05:48;10.80;99.90
5086;DHT22;4715;51.660;7.082;2023-12-29T11:08:16;10.80;99.90
5086;DHT22;4715;51.660;7.082;2023-12-29T11:10:39;10.80;99.90
5086;DHT22;4715;51.660;7.082;2023-12-29T11:13:01;10.80;99.90
5086;DHT22;4715;51.660;7.082;2023-12-29T11:15:24;10.80;99.90
5086;DHT22;4715;51.660;7.082;2023-12-29T11:17:50;10.80;99.90
5086;DHT22;4715;51.660;7.082;2023-12-29T11:20:14;10.90;99.90
5086;DHT22;4715;51.660;7.082;2023-12-29T11:22:37;10.90;99.90
5086;DHT22;4715;51.660;7.082;2023-12-29T11:24:59;10.90;99.90
5086;DHT22;4715;51.660;7.082;2023-12-29T11:27:22;10.90;99.90
5086;DHT22;4715;51.660;7.082;2023-12-29T11:29:48;11.00;99.90
5086;DHT22;4715;51.660;7.082;2023-12-29T11:32:22;11.00;99.90
5086;DHT22;4715;51.660;7.082;2023-12-29T11:34:53;11.00;99.90
5086;DHT22;4715;51.660;7.082;2023-12-29T11:37:28;11.00;99.90
5086;DHT22;4715;51.660;7.082;2023-12-29T11:39:59;11.00;99.90
5086;DHT22;4715;51.660;7.082;2023-12-29T11:42:29;11.00;99.90
5086;DHT22;4715;51.660;7.082;2023-12-29T11:44:55;11.00;99.90
5086;DHT22;4715;51.660;7.082;2023-12-29T11:47:42;11.00;99.90
5086;DHT22;4715;51.660;7.082;2023-12-29T11:50:06;11.10;99.90
5086;DHT22;4715;51.660;7.082;2023-12-29T11:52:37;11.10;99.90
5086;DHT22;4715;51.660;7.082;2023-12-29T11:55:13;11.10;99.90
5086;DHT22;4715;51.660;7.082;2023-12-29T11:57:39;11.10;99.90
5086;DHT22;4715;51.660;7.082;2023-12-29T12:00:02;11.10;99.90
5086;DHT22;4715;51.660;7.082;2023-12-29T12:02:27;11.10;99.90
5086;DHT22;4715;51.660;7.082;2023-12-29T12:04:49;11.20;99.90
5086;DHT22;4715;51.660;7.082;2023-12-29T12:07:17;11.10;99.90
5086;DHT22;4715;51.660;7.082;2023-12-29T12:10:28;11.20;99.90
5086;DHT22;4715;51.660;7.082;2023-12-29T12:12:52;11.20;99.90
5086;DHT22;4715;51.660;7.082;2023-12-29T12:15:38;11.20;99.90
5086;DHT22;4715;51.660;7.082;2023-12-29T12:18:03;11.20;99.90
5086;DHT22;4715;51.660;7.082;2023-12-29T12:20:30;11.20;99.90
5086;DHT22;4715;51.660;7.082;2023-12-29T12:22:57;11.20;99.90
5086;DHT22;4715;51.660;7.082;2023-12-29T12:25:21;11.20;99.90
5086;DHT22;4715;51.660;7.082;2023-12-29T12:27:43;11.20;99.90
5086;DHT22;4715;51.660;7.082;2023-12-29T12:30:06;11.20;99.90
5086;DHT22;4715;51.660;7.082;2023-12-29T12:32:32;11.20;99.90
5086;DHT22;4715;51.660;7.082;2023-12-29T12:34:55;11.20;99.90
5086;DHT22;4715;51.660;7.082;2023-12-29T12:37:22;11.20;99.90
5086;DHT22;4715;51.660;7.082;2023-12-29T12:39:44;11.20;99.90
5086;DHT22;4715;51.660;7.082;2023-12-29T12:42:07;11.20;99.90
5086;DHT22;4715;51.660;7.082;2023-12-29T12:44:29;11.20;99.90
5086;DHT22;4715;51.660;7.082;2023-12-29T12:46:56;11.20;99.90
5086;DHT22;4715;51.660;7.082;2023-12-29T12:49:20;11.20;99.90
5086;DHT22;4715;51.660;7.082;2023-12-29T12:51:44;11.20;99.90
5086;DHT22;4715;51.660;7.082;2023-12-29T12:54:08;11.20;99.90
5086;DHT22;4715;51.660;7.082;2023-12-29T12:56:33;11.20;99.90
5086;DHT22;4715;51.660;7.082;2023-12-29T12:58:58;11.20;99.90
5086;DHT22;4715;51.660;7.082;2023-12-29T13:01:23;11.10;99.90
5086;DHT22;4715;51.660;7.082;2023-12-29T13:03:47;11.10;99.90
5086;DHT22;4715;51.660;7.082;2023-12-29T13:06:10;10.90;99.90
5086;DHT22;4715;51.660;7.082;2023-12-29T13:08:37;10.80;99.90
5086;DHT22;4715;51.660;7.082;2023-12-29T13:10:59;10.60;99.90
5086;DHT22;4715;51.660;7.082;2023-12-29T13:13:22;10.40;99.90
5086;DHT22;4715;51.660;7.082;2023-12-29T13:15:49;10.30;99.90
5086;DHT22;4715;51.660;7.082;2023-12-29T13:18:11;10.10;99.90
5086;DHT22;4715;51.660;7.082;2023-12-29T13:20:43;9.90;99.90
5086;DHT22;4715;51.660;7.082;2023-12-29T13:23:06;9.80;99.90
5086;DHT22;4715;51.660;7.082;2023-12-29T13:25:28;9.70;99.90
5086;DHT22;4715;51.660;7.082;2023-12-29T13:27:50;9.50;99.90
5086;DHT22;4715;51.660;7.082;2023-12-29T13:30:16;9.40;99.90
5086;DHT22;4715;51.660;7.082;2023-12-29T13:32:40;9.20;99.90
5086;DHT22;4715;51.660;7.082;2023-12-29T13:35:08;9.10;99.90
5086;DHT22;4715;51.660;7.082;2023-12-29T13:37:36;9.00;99.90
5086;DHT22;4715;51.660;7.082;2023-12-29T13:40:07;8.90;99.90
5086;DHT22;4715;51.660;7.082;2023-12-29T13:42:32;8.90;99.90
5086;DHT22;4715;51.660;7.082;2023-12-29T13:44:55;8.80;99.90
5086;DHT22;4715;51.660;7.082;2023-12-29T13:47:19;8.80;99.90
5086;DHT22;4715;51.660;7.082;2023-12-29T13:49:43;8.80;99.90
5086;DHT22;4715;51.660;7.082;2023-12-29T13:52:05;8.70;99.90
5086;DHT22;4715;51.660;7.082;2023-12-29T13:54:27;8.70;99.90
5086;DHT22;4715;51.660;7.082;2023-12-29T13:56:53;8.60;99.90
5086;DHT22;4715;51.660;7.082;2023-12-29T13:59:15;8.60;99.90
5086;DHT22;4715;51.660;7.082;2023-12-29T14:01:39;8.60;99.90
5086;DHT22;4715;51.660;7.082;2023-12-29T14:04:03;8.60;99.90
5086;DHT22;4715;51.660;7.082;2023-12-29T14:06:32;8.60;99.90
5086;DHT22;4715;51.660;7.082;2023-12-29T14:08:58;8.60;99.90
5086;DHT22;4715;51.660;7.082;2023-12-29T14:11:19;8.70;99.90
5086;DHT22;4715;51.660;7.082;2023-12-29T14:13:41;8.70;99.90
5086;DHT22;4715;51.660;7.082;2023-12-29T14:16:04;8.70;99.90
5086;DHT22;4715;51.660;7.082;2023-12-29T14:18:59;8.80;99.90
5086;DHT22;4715;51.660;7.082;2023-12-29T14:21:26;8.80;99.90
5086;DHT22;4715;51.660;7.082;2023-12-29T14:24:00;8.80;99.90
5086;DHT22;4715;51.660;7.082;2023-12-29T14:26:24;8.80;99.90
5086;DHT22;4715;51.660;7.082;2023-12-29T14:28:46;8.70;99.90
5086;DHT22;4715;51.660;7.082;2023-12-29T14:31:23;8.70;99.90
5086;DHT22;4715;51.660;7.082;2023-12-29T14:33:45;8.60;99.90
5086;DHT22;4715;51.660;7.082;2023-12-29T14:36:07;8.50;99.90
5086;DHT22;4715;51.660;7.082;2023-12-29T14:38:30;8.50;99.90
5086;DHT22;4715;51.660;7.082;2023-12-29T14:40:55;8.40;99.90
5086;DHT22;4715;51.660;7.082;2023-12-29T14:43:18;8.40;99.90
5086;DHT22;4715;51.660;7.082;2023-12-29T14:45:40;8.40;99.90
5086;DHT22;4715;51.660;7.082;2023-12-29T14:48:02;8.40;99.90
5086;DHT22;4715;51.660;7.082;2023-12-29T14:50:24;8.40;99.90
5086;DHT22;4715;51.660;7.082;2023-12-29T14:52:46;8.50;99.90
5086;DHT22;4715;51.660;7.082;2023-12-29T14:55:08;8.50;99.90
5086;DHT22;4715;51.660;7.082;2023-12-29T14:57:31;8.60;99.90
5086;DHT22;4715;51.660;7.082;2023-12-29T14:59:54;8.70;99.90
5086;DHT22;4715;51.660;7.082;2023-12-29T15:02:16;8.80;99.90
5086;DHT22;4715;51.660;7.082;2023-12-29T15:04:38;8.90;99.90
5086;DHT22;4715;51.660;7.082;2023-12-29T15:07:00;9.00;99.90
5086;DHT22;4715;51.660;7.082;2023-12-29T15:09:22;9.10;99.90
5086;DHT22;4715;51.660;7.082;2023-12-29T15:11:44;9.20;99.90
5086;DHT22;4715;51.660;7.082;2023-12-29T15:14:07;9.30;99.90
5086;DHT22;4715;51.660;7.082;2023-12-29T15:16:29;9.30;99.90
5086;DHT22;4715;51.660;7.082;2023-12-29T15:18:51;9.40;99.90
5086;DHT22;4715;51.660;7.082;2023-12-29T15:21:12;9.50;99.90
5086;DHT22;4715;51.660;7.082;2023-12-29T15:23:35;9.60;99.90
5086;DHT22;4715;51.660;7.082;2023-12-29T15:25:57;9.70;99.90
5086;DHT22;4715;51.660;7.082;2023-12-29T15:28:19;9.80;99.90
5086;DHT22;4715;51.660;7.082;2023-12-29T15:30:43;9.90;99.90
5086;DHT22;4715;51.660;7.082;2023-12-29T15:33:06;10.00;99.90
5086;DHT22;4715;51.660;7.082;2023-12-29T15:35:29;10.00;99.90
5086;DHT22;4715;51.660;7.082;2023-12-29T15:37:51;10.00;99.90
5086;DHT22;4715;51.660;7.082;2023-12-29T15:40:13;9.90;99.90
5086;DHT22;4715;51.660;7.082;2023-12-29T15:42:35;9.80;99.90